Terminal Aerodrome Forecast
Issued by NWS

Home | Current Version | Previous Version | Text Only | Print | Product List | Glossary On
Versions: 1 2 3 4 5 6 7 8 9 10 11 12 13 14 15 16
907
FTUS41 KBGM 242324
TAFRME
TAF
KRME 242324Z 2500/2524 16007KT P6SM FEW250
     FM251100 14006KT P6SM BKN150
     FM251500 17006KT P6SM OVC030
     FM251700 22006KT P6SM OVC025
     FM252000 24004KT P6SM -SHRA OVC015=

USA.gov is the U.S. government's official web portal to all federal, state and local government web resources and services.